Time;durP1;ratioP1;P1;durP2;ratioP2;P2;SDS_P1;SDS_P2;PMS_P1;PMS_P2;Temp;Humidity;BMP_temperature;BMP_pressure;BME280_temperature;BME280_humidity;BME280_pressure;Samples;Min_cycle;Max_cycle;Signal;HPM_P1;HPM_P2
2022/05/30 00:02:10;;;;;;;4.25;2.47;;;;;;;;;;4463567;32;20251;-58
2022/05/30 00:04:36;;;;;;;7.30;2.12;;;;;;;;;;4464046;32;20295;-59
2022/05/30 00:07:02;;;;;;;5.32;2.90;;;;;;;;;;4463706;32;20325;-59
2022/05/30 00:09:28;;;;;;;8.68;2.05;;;;;;;;;;4449781;32;20271;-60
2022/05/30 00:11:53;;;;;;;3.85;2.35;;;;;;;;;;4448144;32;20259;-60
2022/05/30 00:14:18;;;;;;;12.93;2.53;;;;;;;;;;4448141;32;20310;-60
2022/05/30 00:16:44;;;;;;;5.82;2.67;;;;;;;;;;4456530;32;20256;-59
2022/05/30 00:19:09;;;;;;;3.92;2.47;;;;;;;;;;4459557;32;20287;-59
2022/05/30 00:21:35;;;;;;;5.05;2.25;;;;;;;;;;4447996;32;20582;-60
2022/05/30 00:24:00;;;;;;;5.55;2.25;;;;;;;;;;4448598;32;20306;-60
2022/05/30 00:26:26;;;;;;;4.45;2.33;;;;;;;;;;4448689;32;20283;-59
2022/05/30 00:28:52;;;;;;;5.32;3.28;;;;;;;;;;4464026;32;20305;-59
2022/05/30 00:31:18;;;;;;;5.25;2.08;;;;;;;;;;4466241;32;20314;-59
2022/05/30 00:33:46;;;;;;;14.10;2.60;;;;;;;;;;4466504;32;20520;-59
2022/05/30 00:36:11;;;;;;;3.70;2.53;;;;;;;;;;4466495;32;20330;-60
2022/05/30 00:38:38;;;;;;;14.63;3.15;;;;;;;;;;4465180;32;20635;-60
2022/05/30 00:41:03;;;;;;;7.68;3.15;;;;;;;;;;4466052;32;20463;-60
2022/05/30 00:43:32;;;;;;;5.12;2.62;;;;;;;;;;4466228;32;20333;-59
2022/05/30 00:46:01;;;;;;;8.35;3.78;;;;;;;;;;4465839;32;20212;-59
2022/05/30 00:48:38;;;;;;;9.60;2.80;;;;;;;;;;4465494;32;20271;-59
2022/05/30 00:51:11;;;;;;;5.18;2.60;;;;;;;;;;4466133;32;20200;-60
2022/05/30 00:53:38;;;;;;;3.45;2.20;;;;;;;;;;4466217;32;20583;-60
2022/05/30 00:56:05;;;;;;;3.55;2.25;;;;;;;;;;4464375;32;20311;-59
2022/05/30 00:58:34;;;;;;;3.70;2.20;;;;;;;;;;4466107;32;20402;-60
2022/05/30 01:01:00;;;;;;;5.95;2.12;;;;;;;;;;4465831;32;20291;-59
2022/05/30 01:08:55;;;;;;;5.57;2.45;;;;;;;;;;4455840;32;20279;-60
2022/05/30 01:11:20;;;;;;;10.32;2.87;;;;;;;;;;4450396;32;20339;-60
2022/05/30 01:13:45;;;;;;;5.25;2.72;;;;;;;;;;4450214;32;20268;-59
2022/05/30 01:16:11;;;;;;;20.52;3.20;;;;;;;;;;4450031;32;20247;-60
2022/05/30 01:18:48;;;;;;;5.87;2.70;;;;;;;;;;4450032;32;20397;-59
2022/05/30 01:21:35;;;;;;;11.10;2.62;;;;;;;;;;4449938;32;20259;-58
2022/05/30 01:24:15;;;;;;;4.47;3.03;;;;;;;;;;4450428;32;20196;-59
2022/05/30 01:27:06;;;;;;;3.55;2.70;;;;;;;;;;4452483;32;20271;-60
2022/05/30 01:29:42;;;;;;;7.22;2.50;;;;;;;;;;4465896;32;20282;-62
2022/05/30 01:32:07;;;;;;;3.92;3.03;;;;;;;;;;4465294;32;20675;-59
2022/05/30 01:34:33;;;;;;;6.37;3.25;;;;;;;;;;4460704;32;20302;-59
2022/05/30 01:36:59;;;;;;;2.75;2.53;;;;;;;;;;4449730;32;20222;-59
2022/05/30 01:39:25;;;;;;;5.45;3.10;;;;;;;;;;4450108;32;20332;-59
2022/05/30 01:41:50;;;;;;;7.53;3.85;;;;;;;;;;4447686;32;20303;-59
2022/05/30 01:44:16;;;;;;;4.37;3.35;;;;;;;;;;4449595;32;20366;-59
2022/05/30 01:46:42;;;;;;;6.45;3.42;;;;;;;;;;4448005;32;20397;-59
2022/05/30 01:49:08;;;;;;;6.70;3.30;;;;;;;;;;4449870;32;20335;-59
2022/05/30 01:51:33;;;;;;;4.75;3.12;;;;;;;;;;4449266;32;20224;-59
2022/05/30 01:53:59;;;;;;;4.97;3.05;;;;;;;;;;4449629;32;20275;-60
2022/05/30 01:56:25;;;;;;;5.40;3.03;;;;;;;;;;4448364;32;20262;-60
2022/05/30 01:58:50;;;;;;;4.53;2.97;;;;;;;;;;4449645;32;20292;-60
2022/05/30 02:01:20;;;;;;;8.55;3.65;;;;;;;;;;4448926;32;20213;-59
2022/05/30 02:03:46;;;;;;;11.65;3.17;;;;;;;;;;4449541;32;20209;-59
2022/05/30 02:06:12;;;;;;;6.25;3.53;;;;;;;;;;4449225;32;20675;-59
2022/05/30 02:08:37;;;;;;;6.62;3.62;;;;;;;;;;4457637;32;20375;-60
2022/05/30 02:11:03;;;;;;;12.55;3.80;;;;;;;;;;4464771;32;20268;-60
2022/05/30 02:13:28;;;;;;;7.62;4.28;;;;;;;;;;4464737;32;20279;-59
2022/05/30 02:18:38;;;;;;;8.93;4.37;;;;;;;;;;4464903;32;20257;-60
2022/05/30 02:21:04;;;;;;;7.05;3.75;;;;;;;;;;4458343;32;20228;-60
2022/05/30 02:23:29;;;;;;;3.08;2.37;;;;;;;;;;4449266;32;20653;-61
2022/05/30 02:25:55;;;;;;;4.55;2.60;;;;;;;;;;4449194;32;20200;-60
2022/05/30 02:28:20;;;;;;;6.12;2.47;;;;;;;;;;4463795;32;20703;-59
2022/05/30 02:30:45;;;;;;;11.10;2.47;;;;;;;;;;4459802;32;20615;-59
2022/05/30 02:38:39;;;;;;;10.13;2.78;;;;;;;;;;4448931;32;20653;-60
2022/05/30 02:41:04;;;;;;;5.35;2.72;;;;;;;;;;4450783;32;20208;-60
2022/05/30 02:43:30;;;;;;;4.53;3.08;;;;;;;;;;4455864;32;20329;-61
2022/05/30 02:45:56;;;;;;;7.68;3.10;;;;;;;;;;4448493;32;20200;-59
2022/05/30 02:48:21;;;;;;;5.57;3.20;;;;;;;;;;4449068;32;20757;-61
2022/05/30 02:50:47;;;;;;;5.55;2.97;;;;;;;;;;4448942;32;20810;-60
2022/05/30 02:53:12;;;;;;;4.00;2.40;;;;;;;;;;4448448;32;20299;-59
2022/05/30 02:55:38;;;;;;;6.65;2.33;;;;;;;;;;4447605;32;20259;-60
2022/05/30 02:58:03;;;;;;;5.93;2.60;;;;;;;;;;4448814;32;20255;-59
2022/05/30 03:00:29;;;;;;;6.60;2.00;;;;;;;;;;4448795;32;20208;-59
2022/05/30 03:02:55;;;;;;;6.30;2.17;;;;;;;;;;4448590;32;20282;-60
2022/05/30 03:05:21;;;;;;;3.12;2.47;;;;;;;;;;4448907;32;20239;-60
2022/05/30 03:07:46;;;;;;;7.40;2.60;;;;;;;;;;4451592;32;20261;-59
2022/05/30 03:10:11;;;;;;;6.72;2.53;;;;;;;;;;4464161;32;20205;-60
2022/05/30 03:12:37;;;;;;;5.10;2.17;;;;;;;;;;4464164;32;20355;-60
2022/05/30 03:15:03;;;;;;;5.80;2.47;;;;;;;;;;4462913;32;20322;-60
2022/05/30 03:17:28;;;;;;;3.93;2.57;;;;;;;;;;4463678;32;20239;-60
2022/05/30 03:19:54;;;;;;;6.77;3.17;;;;;;;;;;4462625;32;20333;-60
2022/05/30 03:22:20;;;;;;;7.15;2.72;;;;;;;;;;4449453;32;20216;-60
2022/05/30 03:24:45;;;;;;;3.55;2.45;;;;;;;;;;4448456;32;20299;-60
2022/05/30 03:27:11;;;;;;;4.33;2.90;;;;;;;;;;4449818;32;20295;-60
2022/05/30 03:29:36;;;;;;;17.50;3.97;;;;;;;;;;4448897;32;20305;-60
2022/05/30 03:32:02;;;;;;;6.23;3.20;;;;;;;;;;4447976;32;20351;-60
2022/05/30 03:34:27;;;;;;;5.30;3.12;;;;;;;;;;4448450;32;20284;-59
2022/05/30 03:36:52;;;;;;;4.82;3.22;;;;;;;;;;4446886;32;20613;-60
2022/05/30 03:39:18;;;;;;;8.82;3.78;;;;;;;;;;4448461;32;20649;-59
2022/05/30 03:41:43;;;;;;;6.45;3.03;;;;;;;;;;4446899;32;20756;-60
2022/05/30 03:44:09;;;;;;;9.55;3.70;;;;;;;;;;4448196;32;20346;-59
2022/05/30 03:46:34;;;;;;;6.68;3.47;;;;;;;;;;4448126;32;20282;-60
2022/05/30 03:49:00;;;;;;;15.03;4.17;;;;;;;;;;4448047;32;20371;-61
2022/05/30 03:51:25;;;;;;;7.12;3.70;;;;;;;;;;4448067;32;20295;-60
2022/05/30 03:53:51;;;;;;;10.98;4.45;;;;;;;;;;4448430;32;20276;-60
2022/05/30 03:56:19;;;;;;;14.50;4.45;;;;;;;;;;4447907;32;20698;-59
2022/05/30 03:58:44;;;;;;;8.45;4.50;;;;;;;;;;4448255;32;20200;-60
2022/05/30 04:01:10;;;;;;;5.50;2.90;;;;;;;;;;4447941;32;20659;-60
2022/05/30 04:03:37;;;;;;;6.25;4.15;;;;;;;;;;4448721;32;20591;-60
2022/05/30 04:06:03;;;;;;;7.68;3.83;;;;;;;;;;4450283;32;20334;-60
2022/05/30 04:08:28;;;;;;;19.48;3.75;;;;;;;;;;4458588;32;20702;-60
2022/05/30 04:10:54;;;;;;;8.98;3.72;;;;;;;;;;4466313;32;20232;-60
2022/05/30 04:13:20;;;;;;;9.52;3.70;;;;;;;;;;4467108;32;20351;-60
2022/05/30 04:15:45;;;;;;;9.55;4.12;;;;;;;;;;4466424;32;20250;-59
2022/05/30 04:18:11;;;;;;;4.55;3.17;;;;;;;;;;4466660;32;20403;-60
2022/05/30 04:20:36;;;;;;;16.80;3.20;;;;;;;;;;4462799;32;20256;-59
2022/05/30 04:23:02;;;;;;;6.10;2.53;;;;;;;;;;4449063;32;20307;-59
2022/05/30 04:25:28;;;;;;;7.30;3.78;;;;;;;;;;4450591;32;20230;-60
2022/05/30 04:27:53;;;;;;;10.75;4.07;;;;;;;;;;4460619;32;20264;-60
2022/05/30 04:30:19;;;;;;;5.53;3.25;;;;;;;;;;4466743;32;20265;-59
2022/05/30 04:32:45;;;;;;;9.32;3.78;;;;;;;;;;4466399;32;20253;-59
2022/05/30 04:35:11;;;;;;;6.57;2.92;;;;;;;;;;4466270;32;20236;-60
2022/05/30 04:37:37;;;;;;;8.85;3.70;;;;;;;;;;4466408;32;20559;-60
2022/05/30 04:40:03;;;;;;;7.03;3.37;;;;;;;;;;4466019;32;20822;-60
2022/05/30 04:42:29;;;;;;;5.72;3.12;;;;;;;;;;4465529;32;20568;-60
2022/05/30 04:44:54;;;;;;;13.73;4.62;;;;;;;;;;4465966;32;20259;-59
2022/05/30 04:47:19;;;;;;;9.13;4.37;;;;;;;;;;4465206;32;20255;-59
2022/05/30 04:49:47;;;;;;;5.03;2.85;;;;;;;;;;4464866;32;20305;-59
2022/05/30 04:52:13;;;;;;;14.18;4.45;;;;;;;;;;4465208;32;20298;-59
2022/05/30 04:54:38;;;;;;;12.43;3.53;;;;;;;;;;4465710;32;20279;-60
2022/05/30 04:57:05;;;;;;;15.48;4.20;;;;;;;;;;4465152;32;20239;-58
2022/05/30 04:59:31;;;;;;;9.68;4.28;;;;;;;;;;4465008;32;20647;-60
2022/05/30 05:01:56;;;;;;;8.27;4.22;;;;;;;;;;4464924;32;20430;-60
2022/05/30 05:04:22;;;;;;;9.15;4.10;;;;;;;;;;4465466;32;20608;-60
2022/05/30 05:06:49;;;;;;;12.55;4.30;;;;;;;;;;4465113;32;20738;-61
2022/05/30 05:09:17;;;;;;;7.70;3.70;;;;;;;;;;4464823;32;20269;-59
2022/05/30 05:11:44;;;;;;;7.67;3.37;;;;;;;;;;4464091;32;20242;-60
2022/05/30 05:14:10;;;;;;;4.65;3.15;;;;;;;;;;4464660;32;20672;-59
2022/05/30 05:16:36;;;;;;;9.95;3.30;;;;;;;;;;4464275;32;20228;-59
2022/05/30 05:19:02;;;;;;;4.55;2.22;;;;;;;;;;4463980;32;20286;-59
2022/05/30 05:21:30;;;;;;;3.30;2.55;;;;;;;;;;4464018;32;20262;-61
2022/05/30 05:23:56;;;;;;;3.92;2.30;;;;;;;;;;4463744;32;20676;-60
2022/05/30 05:26:21;;;;;;;3.62;2.85;;;;;;;;;;4462040;32;20351;-60
2022/05/30 05:28:47;;;;;;;7.75;3.10;;;;;;;;;;4465127;32;20227;-60
2022/05/30 05:31:20;;;;;;;4.90;3.22;;;;;;;;;;4462904;32;20687;-60
2022/05/30 05:33:45;;;;;;;8.88;2.85;;;;;;;;;;4464886;32;20204;-59
2022/05/30 05:36:11;;;;;;;9.40;2.50;;;;;;;;;;4464299;32;20323;-60
2022/05/30 05:38:36;;;;;;;7.47;3.63;;;;;;;;;;4464389;32;20325;-59
2022/05/30 05:41:07;;;;;;;2.87;2.30;;;;;;;;;;4449743;32;20622;-60
2022/05/30 05:43:32;;;;;;;13.27;4.53;;;;;;;;;;4448988;32;20696;-59
2022/05/30 05:45:58;;;;;;;130.83;28.97;;;;;;;;;;4447636;32;20234;-60
2022/05/30 05:48:23;;;;;;;16.77;6.37;;;;;;;;;;4445981;32;20311;-60
2022/05/30 05:50:48;;;;;;;9.60;3.22;;;;;;;;;;4448291;32;20228;-60
2022/05/30 05:53:14;;;;;;;11.27;5.35;;;;;;;;;;4448535;32;20795;-60
2022/05/30 05:55:39;;;;;;;21.92;5.55;;;;;;;;;;4448478;32;20240;-59
2022/05/30 05:58:06;;;;;;;12.98;5.72;;;;;;;;;;4447629;32;20351;-59
2022/05/30 06:00:32;;;;;;;8.90;4.57;;;;;;;;;;4448109;32;20231;-59
2022/05/30 06:02:58;;;;;;;6.85;3.80;;;;;;;;;;4448060;32;20617;-59
2022/05/30 06:05:23;;;;;;;7.50;3.53;;;;;;;;;;4447992;32;20563;-59
2022/05/30 06:07:49;;;;;;;6.97;2.97;;;;;;;;;;4448050;32;20224;-60
2022/05/30 06:10:15;;;;;;;6.78;3.70;;;;;;;;;;4447394;32;20246;-60
2022/05/30 06:12:43;;;;;;;7.65;3.17;;;;;;;;;;4448689;32;20670;-59
2022/05/30 06:15:11;;;;;;;8.53;3.20;;;;;;;;;;4448217;32;20234;-61
2022/05/30 06:17:40;;;;;;;6.93;3.30;;;;;;;;;;4448392;32;20323;-60
2022/05/30 06:20:08;;;;;;;10.93;3.75;;;;;;;;;;4447217;32;20599;-60
2022/05/30 06:22:33;;;;;;;9.15;4.03;;;;;;;;;;4448217;32;20267;-60
2022/05/30 06:24:59;;;;;;;5.47;3.13;;;;;;;;;;4448357;32;20415;-60
2022/05/30 06:27:24;;;;;;;13.27;5.07;;;;;;;;;;4463067;32;20541;-61
2022/05/30 06:29:51;;;;;;;7.50;4.63;;;;;;;;;;4463679;32;20687;-60
2022/05/30 06:32:16;;;;;;;10.90;5.20;;;;;;;;;;4460963;32;20224;-60
2022/05/30 06:34:42;;;;;;;12.05;5.40;;;;;;;;;;4450848;32;20329;-59
2022/05/30 06:37:08;;;;;;;10.88;5.15;;;;;;;;;;4464035;32;20224;-60
2022/05/30 06:39:34;;;;;;;7.30;5.50;;;;;;;;;;4463993;32;20310;-61
2022/05/30 06:41:59;;;;;;;11.35;4.80;;;;;;;;;;4447982;32;20224;-60
2022/05/30 06:44:25;;;;;;;10.80;4.85;;;;;;;;;;4448700;32;20295;-59
2022/05/30 06:46:50;;;;;;;9.95;5.53;;;;;;;;;;4446697;32;20303;-60
2022/05/30 06:49:16;;;;;;;14.65;5.47;;;;;;;;;;4448158;32;20384;-59
2022/05/30 06:51:41;;;;;;;6.53;5.30;;;;;;;;;;4447808;32;20335;-59
2022/05/30 06:54:08;;;;;;;9.40;5.43;;;;;;;;;;4448205;32;20369;-58
2022/05/30 06:56:37;;;;;;;7.35;5.35;;;;;;;;;;4450371;32;20220;-59
2022/05/30 06:59:03;;;;;;;11.23;5.07;;;;;;;;;;4450316;32;20278;-59
2022/05/30 07:01:34;;;;;;;8.75;6.35;;;;;;;;;;4447939;32;20266;-60
2022/05/30 07:04:00;;;;;;;7.30;4.85;;;;;;;;;;4447522;32;20266;-59
2022/05/30 07:06:32;;;;;;;7.37;4.47;;;;;;;;;;4446931;32;20225;-60
2022/05/30 07:08:59;;;;;;;7.85;4.43;;;;;;;;;;4446006;32;20378;-60
2022/05/30 07:11:25;;;;;;;7.90;4.43;;;;;;;;;;4447708;32;20275;-61
2022/05/30 07:13:51;;;;;;;8.88;5.37;;;;;;;;;;4448079;32;20288;-60
2022/05/30 07:16:17;;;;;;;11.90;5.62;;;;;;;;;;4446279;32;20252;-60
2022/05/30 07:18:43;;;;;;;9.05;4.82;;;;;;;;;;4448206;32;20655;-60
2022/05/30 07:21:12;;;;;;;14.48;5.70;;;;;;;;;;4447477;32;20222;-60
2022/05/30 07:23:37;;;;;;;6.53;4.07;;;;;;;;;;4447513;32;20243;-58
2022/05/30 07:26:08;;;;;;;12.98;5.15;;;;;;;;;;4447497;32;20545;-60
2022/05/30 07:28:34;;;;;;;9.20;5.12;;;;;;;;;;4462129;32;20720;-60
2022/05/30 07:31:08;;;;;;;11.05;5.50;;;;;;;;;;4460315;32;20223;-59
2022/05/30 07:33:34;;;;;;;11.02;6.65;;;;;;;;;;4445826;32;20241;-59
2022/05/30 07:36:00;;;;;;;11.85;7.28;;;;;;;;;;4447029;32;20593;-59
2022/05/30 07:38:26;;;;;;;10.23;7.15;;;;;;;;;;4445406;32;20269;-59
2022/05/30 07:40:52;;;;;;;18.12;8.20;;;;;;;;;;4449527;32;20353;-60
2022/05/30 07:43:18;;;;;;;12.07;5.12;;;;;;;;;;4450608;32;20340;-60
2022/05/30 07:45:43;;;;;;;8.98;5.68;;;;;;;;;;4450476;32;20213;-60
2022/05/30 07:48:09;;;;;;;11.68;6.55;;;;;;;;;;4450959;32;20232;-59
2022/05/30 07:50:36;;;;;;;18.52;6.40;;;;;;;;;;4449492;32;20650;-59
2022/05/30 07:53:02;;;;;;;19.85;6.12;;;;;;;;;;4450900;32;20313;-59
2022/05/30 07:55:29;;;;;;;8.95;5.32;;;;;;;;;;4450041;32;20680;-59
2022/05/30 07:57:55;;;;;;;8.88;5.12;;;;;;;;;;4437749;32;20289;-59
2022/05/30 08:00:24;;;;;;;13.27;3.70;;;;;;;;;;4450736;32;20235;-61
2022/05/30 08:02:50;;;;;;;10.52;4.05;;;;;;;;;;4450944;32;20317;-60
2022/05/30 08:05:17;;;;;;;9.07;3.78;;;;;;;;;;4451587;32;20197;-59
2022/05/30 08:07:44;;;;;;;8.63;3.67;;;;;;;;;;4451395;32;20285;-59
2022/05/30 08:10:12;;;;;;;15.15;3.65;;;;;;;;;;4449021;32;20264;-59
2022/05/30 08:12:38;;;;;;;6.03;3.78;;;;;;;;;;4449303;32;20251;-59
2022/05/30 08:15:05;;;;;;;7.07;3.67;;;;;;;;;;4450696;32;20220;-59
2022/05/30 08:17:30;;;;;;;9.82;4.05;;;;;;;;;;4449640;32;20287;-60
2022/05/30 08:19:57;;;;;;;8.45;3.90;;;;;;;;;;4451007;32;20293;-60
2022/05/30 08:22:23;;;;;;;8.88;3.33;;;;;;;;;;4450562;32;20346;-59
2022/05/30 08:24:51;;;;;;;3.90;2.92;;;;;;;;;;4455495;32;20641;-60
2022/05/30 08:27:16;;;;;;;10.15;4.32;;;;;;;;;;4465196;32;20248;-60
2022/05/30 08:29:45;;;;;;;5.60;3.53;;;;;;;;;;4465495;32;20384;-60
2022/05/30 08:32:12;;;;;;;5.87;3.45;;;;;;;;;;4465430;32;20254;-59
2022/05/30 08:34:39;;;;;;;11.52;3.12;;;;;;;;;;4465670;32;20250;-60
2022/05/30 08:37:06;;;;;;;8.15;3.42;;;;;;;;;;4465611;32;20228;-60
2022/05/30 08:42:26;;;;;;;8.45;2.67;;;;;;;;;;4465395;32;20634;-60
2022/05/30 08:44:54;;;;;;;4.93;2.55;;;;;;;;;;4465619;32;20306;-60
2022/05/30 08:47:29;;;;;;;5.95;2.50;;;;;;;;;;4465697;32;20231;-60
2022/05/30 08:50:02;;;;;;;9.77;3.40;;;;;;;;;;4465144;32;20282;-60
2022/05/30 08:53:09;;;;;;;6.93;2.92;;;;;;;;;;4465540;32;20212;-60
2022/05/30 08:55:53;;;;;;;9.50;2.95;;;;;;;;;;4465503;32;20307;-60
2022/05/30 08:58:33;;;;;;;5.32;3.30;;;;;;;;;;4464038;32;20279;-59
2022/05/30 09:01:11;;;;;;;7.20;2.90;;;;;;;;;;4465293;32;20199;-60
2022/05/30 09:04:16;;;;;;;6.85;3.00;;;;;;;;;;4465424;32;20216;-59
2022/05/30 09:06:58;;;;;;;7.20;2.62;;;;;;;;;;4450964;32;20636;-59
2022/05/30 09:09:29;;;;;;;9.20;2.12;;;;;;;;;;4463314;32;20505;-59
2022/05/30 09:12:41;;;;;;;6.03;3.03;;;;;;;;;;4465331;32;20220;-60
2022/05/30 09:15:37;;;;;;;12.13;3.33;;;;;;;;;;4427605;32;20239;-60
2022/05/30 09:18:27;;;;;;;9.25;2.83;;;;;;;;;;4461621;32;20224;-59
2022/05/30 09:20:54;;;;;;;10.93;3.42;;;;;;;;;;4465476;32;20600;-61
2022/05/30 09:23:24;;;;;;;9.93;2.87;;;;;;;;;;4465409;32;20237;-62
2022/05/30 09:25:56;;;;;;;7.55;2.42;;;;;;;;;;4453758;32;20212;-61
2022/05/30 09:28:25;;;;;;;8.18;2.78;;;;;;;;;;4463764;32;20264;-61
2022/05/30 09:30:51;;;;;;;5.05;2.25;;;;;;;;;;4464134;32;20228;-61
2022/05/30 09:33:24;;;;;;;7.10;2.72;;;;;;;;;;4450646;32;20678;-60
2022/05/30 09:36:05;;;;;;;7.53;2.35;;;;;;;;;;4449908;32;20231;-61
2022/05/30 09:38:31;;;;;;;6.22;2.53;;;;;;;;;;4449276;32;20211;-61
2022/05/30 09:41:03;;;;;;;14.35;3.17;;;;;;;;;;4449714;32;20204;-59
2022/05/30 09:43:39;;;;;;;8.25;3.12;;;;;;;;;;4450266;32;20189;-60
2022/05/30 09:46:16;;;;;;;9.40;3.47;;;;;;;;;;4449460;32;20196;-61
2022/05/30 09:49:03;;;;;;;4.70;2.55;;;;;;;;;;4448058;32;20303;-61
2022/05/30 09:51:34;;;;;;;3.35;2.30;;;;;;;;;;4449392;32;20354;-60
2022/05/30 09:54:00;;;;;;;5.05;2.40;;;;;;;;;;4449677;32;20218;-59
2022/05/30 09:56:27;;;;;;;7.37;2.75;;;;;;;;;;4449944;32;20216;-60
2022/05/30 09:59:34;;;;;;;7.30;2.60;;;;;;;;;;4449994;32;20226;-61
2022/05/30 10:02:01;;;;;;;8.05;2.50;;;;;;;;;;4431144;32;20402;-60
2022/05/30 10:04:41;;;;;;;5.53;2.47;;;;;;;;;;4432411;32;20244;-60
2022/05/30 10:07:15;;;;;;;6.78;2.47;;;;;;;;;;4451853;32;20248;-60
2022/05/30 10:10:12;;;;;;;4.65;2.17;;;;;;;;;;4449427;32;20225;-59
2022/05/30 10:12:44;;;;;;;3.50;2.05;;;;;;;;;;4449209;32;20224;-60
2022/05/30 10:15:41;;;;;;;7.70;2.25;;;;;;;;;;4448780;32;20609;-60
2022/05/30 10:18:13;;;;;;;5.82;2.72;;;;;;;;;;4442823;32;20308;-59
2022/05/30 10:21:03;;;;;;;4.25;2.05;;;;;;;;;;4449491;32;20204;-59
2022/05/30 10:30:18;;;;;;;10.30;3.50;;;;;;;;;;4464475;32;20297;-59
2022/05/30 10:32:53;;;;;;;7.45;2.00;;;;;;;;;;4464622;32;20284;-59
2022/05/30 10:35:21;;;;;;;7.80;2.72;;;;;;;;;;4465041;32;20564;-59
2022/05/30 10:38:17;;;;;;;7.80;3.25;;;;;;;;;;4465405;32;20243;-59
2022/05/30 10:40:58;;;;;;;7.05;2.62;;;;;;;;;;4465215;32;20264;-59
2022/05/30 10:43:45;;;;;;;10.27;2.72;;;;;;;;;;4464836;32;20212;-59
2022/05/30 10:46:18;;;;;;;7.75;2.67;;;;;;;;;;4465195;32;20326;-59
2022/05/30 10:49:06;;;;;;;11.55;3.28;;;;;;;;;;4465056;32;20513;-59
2022/05/30 10:51:42;;;;;;;7.25;2.62;;;;;;;;;;4464567;32;20288;-59
2022/05/30 10:54:16;;;;;;;5.68;1.95;;;;;;;;;;4465367;32;20212;-58
2022/05/30 10:56:47;;;;;;;11.07;2.28;;;;;;;;;;4462248;32;20678;-58
2022/05/30 10:59:29;;;;;;;9.02;2.17;;;;;;;;;;4449283;32;20205;-58
2022/05/30 11:02:06;;;;;;;5.75;2.03;;;;;;;;;;4449024;32;20570;-58
2022/05/30 11:05:09;;;;;;;17.25;2.58;;;;;;;;;;4448539;32;20779;-58
2022/05/30 11:07:46;;;;;;;6.00;1.90;;;;;;;;;;4448806;32;20275;-59
2022/05/30 11:10:26;;;;;;;11.75;2.47;;;;;;;;;;4448602;32;20276;-59
2022/05/30 11:13:39;;;;;;;8.30;2.47;;;;;;;;;;4447313;32;20232;-59
2022/05/30 11:16:13;;;;;;;6.28;2.75;;;;;;;;;;4412409;32;20209;-58
2022/05/30 11:18:48;;;;;;;11.45;2.10;;;;;;;;;;4449589;32;20187;-59
2022/05/30 11:21:39;;;;;;;13.62;2.20;;;;;;;;;;4448453;32;20816;-59
2022/05/30 11:24:06;;;;;;;5.37;2.00;;;;;;;;;;4421121;32;20225;-59
2022/05/30 11:26:59;;;;;;;6.70;2.72;;;;;;;;;;4464711;32;20380;-59
2022/05/30 11:29:43;;;;;;;15.32;3.12;;;;;;;;;;4464510;32;20316;-59
2022/05/30 11:32:24;;;;;;;7.50;2.85;;;;;;;;;;4456611;32;20220;-59
2022/05/30 11:35:24;;;;;;;7.90;2.42;;;;;;;;;;4449047;32;20628;-58
2022/05/30 11:38:23;;;;;;;7.32;1.70;;;;;;;;;;4443396;32;20228;-59
2022/05/30 11:40:53;;;;;;;7.57;2.85;;;;;;;;;;4447344;32;20684;-59
2022/05/30 11:43:42;;;;;;;7.93;2.97;;;;;;;;;;4447989;32;20279;-58
2022/05/30 11:46:46;;;;;;;5.60;2.35;;;;;;;;;;4447968;32;20614;-59
2022/05/30 11:49:33;;;;;;;6.68;2.17;;;;;;;;;;4449103;32;20271;-58
2022/05/30 11:52:02;;;;;;;4.50;2.20;;;;;;;;;;4448892;32;20228;-60
2022/05/30 11:54:41;;;;;;;5.05;2.17;;;;;;;;;;4449460;32;20331;-59
2022/05/30 11:57:32;;;;;;;4.35;2.12;;;;;;;;;;4448963;32;20228;-59
2022/05/30 12:00:17;;;;;;;12.45;2.30;;;;;;;;;;4448001;32;20648;-58
2022/05/30 12:02:58;;;;;;;5.87;2.75;;;;;;;;;;4448793;32;20614;-59
2022/05/30 12:05:42;;;;;;;7.18;2.08;;;;;;;;;;4448883;32;20219;-59
2022/05/30 12:08:16;;;;;;;7.57;1.55;;;;;;;;;;4454503;32;20255;-59
2022/05/30 12:10:52;;;;;;;11.30;2.85;;;;;;;;;;4463455;32;20469;-59
2022/05/30 12:13:49;;;;;;;10.57;2.37;;;;;;;;;;4463451;32;20208;-59
2022/05/30 12:16:26;;;;;;;6.97;2.30;;;;;;;;;;4459658;32;20363;-60
2022/05/30 12:24:51;;;;;;;6.75;2.35;;;;;;;;;;4458000;32;20238;-58
2022/05/30 12:27:26;;;;;;;9.02;2.42;;;;;;;;;;4456632;32;20270;-59
2022/05/30 12:29:53;;;;;;;5.25;2.20;;;;;;;;;;4465776;32;20253;-58
2022/05/30 12:32:21;;;;;;;5.80;2.00;;;;;;;;;;4466461;32;20232;-58
2022/05/30 12:35:05;;;;;;;12.88;2.33;;;;;;;;;;4464939;32;20329;-59
2022/05/30 12:37:45;;;;;;;12.90;2.37;;;;;;;;;;4466197;32;20245;-58
2022/05/30 12:40:25;;;;;;;10.88;2.42;;;;;;;;;;4466338;32;20212;-59
2022/05/30 12:43:02;;;;;;;7.85;2.40;;;;;;;;;;4466106;32;20314;-60
2022/05/30 12:45:33;;;;;;;7.65;2.65;;;;;;;;;;4466146;32;20292;-60
2022/05/30 12:48:01;;;;;;;11.27;2.30;;;;;;;;;;4466298;32;20215;-60
2022/05/30 12:50:30;;;;;;;5.15;2.33;;;;;;;;;;4455246;32;20358;-60
2022/05/30 12:53:00;;;;;;;7.80;2.17;;;;;;;;;;4450429;32;20225;-60
2022/05/30 12:55:44;;;;;;;9.18;2.17;;;;;;;;;;4450147;32;20563;-59
2022/05/30 12:58:13;;;;;;;7.12;2.62;;;;;;;;;;4450062;32;20224;-59
2022/05/30 13:00:42;;;;;;;8.23;2.05;;;;;;;;;;4450293;32;20208;-59
2022/05/30 13:03:23;;;;;;;11.00;2.70;;;;;;;;;;4450237;32;20703;-59
2022/05/30 13:06:00;;;;;;;5.85;1.83;;;;;;;;;;4449942;32;20235;-59
2022/05/30 13:09:04;;;;;;;11.10;2.30;;;;;;;;;;4448913;32;20320;-59
2022/05/30 13:11:33;;;;;;;4.62;2.22;;;;;;;;;;4450046;32;20534;-59
2022/05/30 13:14:28;;;;;;;5.90;2.50;;;;;;;;;;4449280;32;20763;-59
2022/05/30 13:17:01;;;;;;;9.90;2.72;;;;;;;;;;4444281;32;20258;-64
2022/05/30 13:19:28;;;;;;;9.85;2.62;;;;;;;;;;4448745;32;20220;-58
2022/05/30 13:21:54;;;;;;;13.32;2.28;;;;;;;;;;4449777;32;20518;-59
2022/05/30 13:24:34;;;;;;;11.45;2.00;;;;;;;;;;4448363;32;20313;-61
2022/05/30 13:27:01;;;;;;;11.77;2.30;;;;;;;;;;4453971;32;20359;-59
2022/05/30 13:29:35;;;;;;;18.70;2.92;;;;;;;;;;4464694;32;20616;-59
2022/05/30 13:32:03;;;;;;;4.28;3.00;;;;;;;;;;4457169;32;20255;-59
2022/05/30 13:34:32;;;;;;;8.82;2.75;;;;;;;;;;4449355;32;20272;-60
2022/05/30 13:36:59;;;;;;;11.25;3.90;;;;;;;;;;4448993;32;20216;-60
2022/05/30 13:39:25;;;;;;;14.77;4.90;;;;;;;;;;4449617;32;20243;-60
2022/05/30 13:41:52;;;;;;;9.63;4.10;;;;;;;;;;4449632;32;20367;-60
2022/05/30 13:44:21;;;;;;;8.75;3.22;;;;;;;;;;4449560;32;20303;-59
2022/05/30 13:46:52;;;;;;;10.10;2.62;;;;;;;;;;4449787;32;20242;-59
2022/05/30 13:49:39;;;;;;;8.85;3.15;;;;;;;;;;4449164;32;20196;-59
2022/05/30 13:52:09;;;;;;;4.20;3.00;;;;;;;;;;4448179;32;20247;-59
2022/05/30 13:54:41;;;;;;;9.93;3.28;;;;;;;;;;4449621;32;20239;-60
2022/05/30 13:57:09;;;;;;;17.77;3.70;;;;;;;;;;4449161;32;20259;-60
2022/05/30 13:59:43;;;;;;;13.23;4.00;;;;;;;;;;4449081;32;20235;-59
2022/05/30 14:02:39;;;;;;;15.60;2.92;;;;;;;;;;4449144;32;20224;-59
2022/05/30 14:05:09;;;;;;;11.85;3.00;;;;;;;;;;4448076;32;20251;-59
2022/05/30 14:07:43;;;;;;;5.85;2.40;;;;;;;;;;4450777;32;20654;-59
2022/05/30 14:10:11;;;;;;;10.23;3.08;;;;;;;;;;4464623;32;20208;-60
2022/05/30 14:12:42;;;;;;;5.10;2.53;;;;;;;;;;4464489;32;20236;-59
2022/05/30 14:15:22;;;;;;;6.47;2.80;;;;;;;;;;4464569;32;20184;-59
2022/05/30 14:17:49;;;;;;;11.00;3.00;;;;;;;;;;4464777;32;20293;-59
2022/05/30 14:20:26;;;;;;;9.45;2.87;;;;;;;;;;4464514;32;20278;-59
2022/05/30 14:23:04;;;;;;;5.93;2.62;;;;;;;;;;4464732;32;20774;-59
2022/05/30 14:25:43;;;;;;;10.20;2.85;;;;;;;;;;4454447;32;20306;-59
2022/05/30 14:28:12;;;;;;;5.95;2.35;;;;;;;;;;4460341;32;20647;-59
2022/05/30 14:30:38;;;;;;;9.57;2.65;;;;;;;;;;4463928;32;20193;-59
2022/05/30 14:33:13;;;;;;;8.10;2.75;;;;;;;;;;4464332;32;20511;-60
2022/05/30 14:35:39;;;;;;;7.85;2.80;;;;;;;;;;4464223;32;20325;-60
2022/05/30 14:38:08;;;;;;;6.60;2.65;;;;;;;;;;4464441;32;20231;-59
2022/05/30 14:40:41;;;;;;;9.52;2.35;;;;;;;;;;4464121;32;20212;-60
2022/05/30 14:43:28;;;;;;;4.97;2.05;;;;;;;;;;4452086;32;20292;-59
2022/05/30 14:46:17;;;;;;;5.50;2.53;;;;;;;;;;4447407;32;20287;-60
2022/05/30 14:48:46;;;;;;;12.80;2.15;;;;;;;;;;4446921;32;20371;-60
2022/05/30 14:51:37;;;;;;;8.02;2.60;;;;;;;;;;4448676;32;20693;-59
2022/05/30 14:54:09;;;;;;;5.85;2.75;;;;;;;;;;4447498;32;20295;-59
2022/05/30 14:56:39;;;;;;;11.30;2.50;;;;;;;;;;4448455;32;20242;-59
2022/05/30 14:59:05;;;;;;;9.93;2.50;;;;;;;;;;4448599;32;20415;-59
2022/05/30 15:01:35;;;;;;;7.72;1.75;;;;;;;;;;4448508;32;20314;-60
2022/05/30 15:04:02;;;;;;;11.55;2.15;;;;;;;;;;4449138;32;20369;-60
2022/05/30 15:06:54;;;;;;;13.50;2.78;;;;;;;;;;4461714;32;20298;-58
2022/05/30 15:09:21;;;;;;;9.65;2.00;;;;;;;;;;4451653;32;20216;-59
2022/05/30 15:11:47;;;;;;;8.63;3.17;;;;;;;;;;4448670;32;20296;-59
2022/05/30 15:14:18;;;;;;;5.28;2.47;;;;;;;;;;4448538;32;20291;-59
2022/05/30 15:16:44;;;;;;;5.53;2.45;;;;;;;;;;4449069;32;20292;-58
2022/05/30 15:19:10;;;;;;;6.75;2.87;;;;;;;;;;4448727;32;20287;-59
2022/05/30 15:21:56;;;;;;;5.28;2.10;;;;;;;;;;4448685;32;20676;-59
2022/05/30 15:24:31;;;;;;;10.93;3.35;;;;;;;;;;4448486;32;20200;-59
2022/05/30 15:26:58;;;;;;;11.35;2.42;;;;;;;;;;4452144;32;20603;-59
2022/05/30 15:29:24;;;;;;;5.68;2.15;;;;;;;;;;4463962;32;20294;-59
2022/05/30 15:31:51;;;;;;;12.82;2.58;;;;;;;;;;4457437;32;20567;-59